Startpagina
METAR-TAF:

METAR-TAF

Vliegvelden :

Luchthaven van Auckland

Auckland, Nieuw-Zeeland

breedte: 37-01S, lengte: 174-48E, hoogte: 7 m

Actueel weer

Dit bericht is 10 minuten geleden gemaakt, om 22:00 UTC
Wind 4 kt uit het zuiden, variërend tussen het oostzuidoosten en het westzuidwesten
Temperatuur 19°C
Vochtigheid 68%
Druk 1017 hPa
Zicht 10 km of meer

METAR: NZAA 162200Z AUTO 19004KT 120V250 9999 SCT065/// 19/13 Q1017 NOSIG

Tijdstip: 11:10 (22:10 UTC)

Verwachting

Dit bericht is 5 uur en het 8 minuten geleden gemaakt, om 17:02 UTC
Verwachting geldig van 16 om 18 UTC tot 17 om 18 UTC
Wind 2 kt uit variabele richting
Zicht 10 km of meer
Weinig wolken op 3000 ft
Van 17 om 0000 UTC
Wind 10 kt uit het westzuidwesten
Zicht 10 km of meer
Verspreide wolken op 4000 ft
lichte regenbuien
Van 17 om 0800 UTC
Wind 2 kt uit variabele richting
Zicht 10 km of meer
Verspreide wolken op 4000 ft

TAF: NZAA 161702Z 1618/1718 VRB02KT 9999 FEW030 FM170000 24010KT 9999 -SHRA SCT040 FM170800 VRB02KT 9999 SCT040

Waarnemingen en weersverwachtingen van meer dan 4000 vliegvelden (METAR en TAF).

De beschikbare stations zijn de gele en rode punten op de kaart.

Ga met uw muis naar het station om de naam te zien.

Klik dan om waarnemingen en weersverwachtingen te zien.

kaart wijzigen: klik op de groene knoppen met een zwart kruis om in te zoomen, op de groene knop met een streepje om uit te zoomen of op de groene pijlen voor aangrenzende kaarten.


METAR-TAF: